createdAt,value
2017-02-08T00:00:50.084Z,2.05
2017-02-08T00:01:59.892Z,2.07
2017-02-08T00:03:10.098Z,2.05
2017-02-08T00:04:19.529Z,2.12
2017-02-08T00:05:29.360Z,2.03
2017-02-08T00:06:38.398Z,2
2017-02-08T00:07:47.821Z,2.02
2017-02-08T00:08:56.469Z,2.07
2017-02-08T00:10:06.296Z,2.09
2017-02-08T00:11:16.097Z,2.1
2017-02-08T00:12:25.981Z,2.06
2017-02-08T00:13:35.417Z,2.03
2017-02-08T00:14:45.249Z,2.05
2017-02-08T00:15:54.686Z,2
2017-02-08T00:17:04.877Z,2.03
2017-02-08T00:18:14.706Z,1.98
2017-02-08T00:19:24.555Z,2.05
2017-02-08T00:20:34.740Z,2.02
2017-02-08T00:21:43.826Z,2.02
2017-02-08T00:22:53.660Z,1.95
2017-02-08T00:24:03.491Z,1.98
2017-02-08T00:25:12.532Z,1.91
2017-02-08T00:26:21.581Z,1.93
2017-02-08T00:27:31.013Z,1.93
2017-02-08T00:28:40.443Z,1.98
2017-02-08T00:29:50.257Z,2.02
2017-02-08T00:30:59.682Z,1.91
2017-02-08T00:32:08.730Z,2.02
2017-02-08T00:33:18.163Z,1.93
2017-02-08T00:34:27.652Z,1.99
2017-02-08T00:35:36.695Z,1.91
2017-02-08T00:36:46.132Z,2.02
2017-02-08T00:37:55.957Z,2.06
2017-02-08T00:39:05.405Z,1.95
2017-02-08T00:40:14.889Z,1.91
2017-02-08T00:41:23.953Z,1.93
2017-02-08T00:42:34.149Z,1.98
2017-02-08T00:43:43.195Z,2
2017-02-08T00:44:52.316Z,1.86
2017-02-08T00:46:02.656Z,2.05
2017-02-08T00:47:11.752Z,1.93
2017-02-08T00:48:21.177Z,1.91
2017-02-08T00:49:31.436Z,1.93
2017-02-08T00:50:41.261Z,2.05
2017-02-08T00:51:51.453Z,1.91
2017-02-08T00:53:00.884Z,1.9
2017-02-08T00:54:10.158Z,1.91
2017-02-08T00:55:19.042Z,1.86
2017-02-08T00:56:27.702Z,1.9
2017-02-08T00:57:37.651Z,1.88
2017-02-08T00:58:46.695Z,1.81
2017-02-08T00:59:55.733Z,1.84
2017-02-08T01:01:04.449Z,1.79
2017-02-08T01:02:14.348Z,1.88
2017-02-08T01:03:23.774Z,1.87
2017-02-08T01:04:33.997Z,1.93
2017-02-08T01:05:43.453Z,1.84
2017-02-08T01:06:52.601Z,1.95
2017-02-08T01:08:01.642Z,1.84
2017-02-08T01:09:10.738Z,1.8
2017-02-08T01:10:20.164Z,1.87
2017-02-08T01:11:29.586Z,1.87
2017-02-08T01:12:39.023Z,1.87
2017-02-08T01:13:48.841Z,1.9
2017-02-08T01:14:58.367Z,1.91
2017-02-08T01:16:07.427Z,1.81
2017-02-08T01:17:16.086Z,1.83
2017-02-08T01:18:24.749Z,1.76
2017-02-08T01:19:33.802Z,1.77
2017-02-08T01:20:43.232Z,1.77
2017-02-08T01:21:51.888Z,1.73
2017-02-08T01:23:00.956Z,1.87
2017-02-08T01:24:10.771Z,1.87
2017-02-08T01:25:20.335Z,1.9
2017-02-08T01:26:29.508Z,1.76
2017-02-08T01:27:38.576Z,1.86
2017-02-08T01:28:48.085Z,1.79
2017-02-08T01:29:57.510Z,1.77
2017-02-08T01:31:07.712Z,1.8
2017-02-08T01:32:17.517Z,1.79
2017-02-08T01:33:27.711Z,1.69
2017-02-08T01:34:36.372Z,1.73
2017-02-08T01:35:46.204Z,1.8
2017-02-08T01:36:55.262Z,1.68
2017-02-08T01:38:04.691Z,1.68
2017-02-08T01:39:13.356Z,1.69
2017-02-08T01:40:23.205Z,1.66
2017-02-08T01:41:32.288Z,1.72
2017-02-08T01:42:42.202Z,1.77
2017-02-08T01:43:51.652Z,1.72
2017-02-08T01:45:01.589Z,1.65
2017-02-08T01:46:11.029Z,1.7
2017-02-08T01:47:20.547Z,1.69
2017-02-08T01:48:29.980Z,1.68
2017-02-08T01:49:39.409Z,1.7
2017-02-08T01:50:48.841Z,1.72
2017-02-08T01:51:57.910Z,1.59
2017-02-08T01:53:07.340Z,1.72
2017-02-08T01:54:16.809Z,1.69
2017-02-08T01:55:25.947Z,1.55
2017-02-08T01:56:35.052Z,1.66
2017-02-08T01:57:44.707Z,1.66
2017-02-08T01:58:53.754Z,1.69
2017-02-08T02:00:03.224Z,1.58
2017-02-08T02:01:12.690Z,1.65
2017-02-08T02:02:22.113Z,1.68
2017-02-08T02:03:31.161Z,1.62
2017-02-08T02:04:40.585Z,1.62
2017-02-08T02:05:50.407Z,1.68
2017-02-08T02:06:59.846Z,1.65
2017-02-08T02:08:09.668Z,1.69
2017-02-08T02:09:19.143Z,1.6
2017-02-08T02:10:28.183Z,1.6
2017-02-08T02:11:37.995Z,1.59
2017-02-08T02:12:48.228Z,1.59
2017-02-08T02:13:57.684Z,1.59
2017-02-08T02:15:07.490Z,1.68
2017-02-08T02:16:16.530Z,1.62
2017-02-08T02:17:26.437Z,1.59
2017-02-08T02:18:35.949Z,1.69
2017-02-08T02:19:44.626Z,1.59
2017-02-08T02:20:54.077Z,1.58
2017-02-08T02:22:03.117Z,1.58
2017-02-08T02:23:12.557Z,1.58
2017-02-08T02:24:22.209Z,1.58
2017-02-08T02:25:31.641Z,1.54
2017-02-08T02:26:41.071Z,1.63
2017-02-08T02:27:51.306Z,1.59
2017-02-08T02:29:00.780Z,1.48
2017-02-08T02:30:09.837Z,1.47
2017-02-08T02:31:19.271Z,1.58
2017-02-08T02:32:27.950Z,1.6
2017-02-08T02:33:37.797Z,1.52
2017-02-08T02:34:47.712Z,1.54
2017-02-08T02:35:56.932Z,1.48
2017-02-08T02:37:06.749Z,1.45
2017-02-08T02:38:16.181Z,1.45
2017-02-08T02:39:25.307Z,1.47
2017-02-08T02:40:35.153Z,1.47
2017-02-08T02:41:45.048Z,1.42
2017-02-08T02:42:54.225Z,1.54
2017-02-08T02:44:03.651Z,1.47
2017-02-08T02:45:13.274Z,1.42
2017-02-08T02:46:22.699Z,1.47
2017-02-08T02:47:32.227Z,1.42
2017-02-08T02:48:41.654Z,1.42
2017-02-08T02:49:51.076Z,1.45
2017-02-08T02:51:00.613Z,1.44
2017-02-08T02:52:10.413Z,1.47
2017-02-08T02:53:19.459Z,1.48
2017-02-08T02:54:29.272Z,1.41
2017-02-08T02:55:38.309Z,1.5
2017-02-08T02:56:47.734Z,1.45
2017-02-08T02:57:57.157Z,1.42
2017-02-08T02:59:07.353Z,1.4
2017-02-08T03:00:16.777Z,1.41
2017-02-08T03:01:26.207Z,1.41
2017-02-08T03:02:36.448Z,1.36
2017-02-08T03:03:45.870Z,1.36
2017-02-08T03:04:54.918Z,1.4
2017-02-08T03:06:03.962Z,1.36
2017-02-08T03:07:13.771Z,1.36
2017-02-08T03:08:23.196Z,1.36
2017-02-08T03:09:32.622Z,1.44
2017-02-08T03:10:42.430Z,1.34
2017-02-08T03:11:51.857Z,1.44
2017-02-08T03:13:01.668Z,1.42
2017-02-08T03:14:10.710Z,1.45
2017-02-08T03:15:20.140Z,1.41
2017-02-08T03:16:29.568Z,1.45
2017-02-08T03:17:39.406Z,1.42
2017-02-08T03:18:49.210Z,1.5
2017-02-08T03:19:59.782Z,1.44
2017-02-08T03:21:09.204Z,1.41
2017-02-08T03:22:18.629Z,1.41
2017-02-08T03:23:28.449Z,1.48
2017-02-08T03:24:38.262Z,1.44
2017-02-08T03:25:48.841Z,1.42
2017-02-08T03:26:57.495Z,1.47
2017-02-08T03:28:06.929Z,1.47
2017-02-08T03:29:16.742Z,1.51
2017-02-08T03:30:26.167Z,1.47
2017-02-08T03:31:34.824Z,1.52
2017-02-08T03:32:43.871Z,1.44
2017-02-08T03:33:53.289Z,1.44
2017-02-08T03:35:01.947Z,1.45
2017-02-08T03:36:10.996Z,1.51
2017-02-08T03:37:20.126Z,1.55
2017-02-08T03:38:29.935Z,1.48
2017-02-08T03:39:38.973Z,1.45
2017-02-08T03:40:48.012Z,1.48
2017-02-08T03:41:57.827Z,1.52
2017-02-08T03:43:06.869Z,1.45
2017-02-08T03:44:15.920Z,1.52
2017-02-08T03:45:24.961Z,1.62
2017-02-08T03:46:34.769Z,1.59
2017-02-08T03:47:44.193Z,1.48
2017-02-08T03:48:53.614Z,1.58
2017-02-08T03:50:02.269Z,1.5
2017-02-08T03:51:11.700Z,1.51
2017-02-08T03:52:21.121Z,1.48
2017-02-08T03:53:30.543Z,1.44
2017-02-08T03:54:39.630Z,1.59
2017-02-08T03:55:49.818Z,1.54
2017-02-08T03:56:59.624Z,1.5
2017-02-08T03:58:09.816Z,1.51
2017-02-08T03:59:19.240Z,1.59
2017-02-08T04:00:28.664Z,1.52
2017-02-08T04:01:37.702Z,1.47
2017-02-08T04:02:47.132Z,1.48
2017-02-08T04:03:56.558Z,1.45
2017-02-08T04:05:06.367Z,1.52
2017-02-08T04:06:16.174Z,1.45
2017-02-08T04:07:25.983Z,1.5
2017-02-08T04:08:35.410Z,1.52
2017-02-08T04:09:45.595Z,1.54
2017-02-08T04:10:55.400Z,1.5
2017-02-08T04:12:04.877Z,1.59
2017-02-08T04:13:13.917Z,1.52
2017-02-08T04:14:23.728Z,1.52
2017-02-08T04:15:33.535Z,1.54
2017-02-08T04:16:42.998Z,1.51
2017-02-08T04:17:52.806Z,1.55
2017-02-08T04:19:02.609Z,1.52
2017-02-08T04:20:12.034Z,1.48
2017-02-08T04:21:21.457Z,1.45
2017-02-08T04:22:30.876Z,1.5
2017-02-08T04:23:40.682Z,1.44
2017-02-08T04:24:49.727Z,1.45
2017-02-08T04:25:59.153Z,1.47
2017-02-08T04:27:08.193Z,1.45
2017-02-08T04:28:17.233Z,1.45
2017-02-08T04:29:26.278Z,1.42
2017-02-08T04:30:36.851Z,1.47
2017-02-08T04:31:46.657Z,1.45
2017-02-08T04:32:56.083Z,1.44
2017-02-08T04:34:05.889Z,1.44
2017-02-08T04:35:14.975Z,1.45
2017-02-08T04:36:24.401Z,1.45
2017-02-08T04:37:33.825Z,1.44
2017-02-08T04:38:43.634Z,1.5
2017-02-08T04:39:53.439Z,1.48
2017-02-08T04:41:03.248Z,1.45
2017-02-08T04:42:12.304Z,1.48
2017-02-08T04:43:21.726Z,1.44
2017-02-08T04:44:31.534Z,1.44
2017-02-08T04:45:40.961Z,1.41
2017-02-08T04:46:50.768Z,1.44
2017-02-08T04:48:00.193Z,1.42
2017-02-08T04:49:10.003Z,1.44
2017-02-08T04:50:19.424Z,1.42
2017-02-08T04:51:28.884Z,1.45
2017-02-08T04:52:38.740Z,1.4
2017-02-08T04:53:47.781Z,1.4
2017-02-08T04:54:57.584Z,1.37
2017-02-08T04:56:07.016Z,1.36
2017-02-08T04:57:16.827Z,1.36
2017-02-08T04:58:26.247Z,1.42
2017-02-08T04:59:34.919Z,1.4
2017-02-08T05:00:43.957Z,1.32
2017-02-08T05:01:54.149Z,1.26
2017-02-08T05:03:03.572Z,1.27
2017-02-08T05:04:12.999Z,1.26
2017-02-08T05:05:22.045Z,1.33
2017-02-08T05:06:31.465Z,1.34
2017-02-08T05:07:41.270Z,1.27
2017-02-08T05:08:50.318Z,1.36
2017-02-08T05:09:59.361Z,1.26
2017-02-08T05:11:08.018Z,1.32
2017-02-08T05:12:17.067Z,1.3
2017-02-08T05:13:26.876Z,1.22
2017-02-08T05:14:36.296Z,1.24
2017-02-08T05:15:45.711Z,1.23
2017-02-08T05:16:54.752Z,1.27
2017-02-08T05:18:05.320Z,1.29
2017-02-08T05:19:14.740Z,1.33
2017-02-08T05:20:24.166Z,1.37
2017-02-08T05:21:33.586Z,1.33
2017-02-08T05:22:43.010Z,1.34
2017-02-08T05:23:53.199Z,1.41
2017-02-08T05:25:02.245Z,1.37
2017-02-08T05:26:12.490Z,1.36
2017-02-08T05:27:21.919Z,1.33
2017-02-08T05:28:31.729Z,1.24
2017-02-08T05:29:40.769Z,1.23
2017-02-08T05:30:50.196Z,1.3
2017-02-08T05:31:59.618Z,1.22
2017-02-08T05:33:09.425Z,1.26
2017-02-08T05:34:18.846Z,1.26
2017-02-08T05:35:27.889Z,1.32
2017-02-08T05:36:37.695Z,1.24
2017-02-08T05:37:47.504Z,1.23
2017-02-08T05:38:56.927Z,1.24
2017-02-08T05:40:07.144Z,1.24
2017-02-08T05:41:16.566Z,1.29
2017-02-08T05:42:25.225Z,1.26
2017-02-08T05:43:35.037Z,1.24
2017-02-08T05:44:44.455Z,1.24
2017-02-08T05:45:54.269Z,1.26
2017-02-08T05:47:03.310Z,1.29
2017-02-08T05:48:13.122Z,1.26
2017-02-08T05:49:21.826Z,1.23
2017-02-08T05:50:31.638Z,1.29
2017-02-08T05:51:41.441Z,1.16
2017-02-08T05:52:51.246Z,1.14
2017-02-08T05:54:01.435Z,1.2
2017-02-08T05:55:10.861Z,1.15
2017-02-08T05:56:20.283Z,1.15
2017-02-08T05:57:30.085Z,1.14
2017-02-08T05:58:39.509Z,1.15
2017-02-08T05:59:48.936Z,1.09
2017-02-08T06:00:58.747Z,1.16
2017-02-08T06:02:08.940Z,1.22
2017-02-08T06:03:19.125Z,1.16
2017-02-08T06:04:28.937Z,1.16
2017-02-08T06:05:37.973Z,1.15
2017-02-08T06:06:47.018Z,1.18
2017-02-08T06:07:56.440Z,1.23
2017-02-08T06:09:06.637Z,1.16
2017-02-08T06:10:16.446Z,1.09
2017-02-08T06:11:26.259Z,1.09
2017-02-08T06:12:35.344Z,1.18
2017-02-08T06:13:44.772Z,1.15
2017-02-08T06:14:53.812Z,1.12
2017-02-08T06:16:02.863Z,1.12
2017-02-08T06:17:12.295Z,1.11
2017-02-08T06:18:21.721Z,1.04
2017-02-08T06:19:32.296Z,1.02
2017-02-08T06:20:41.342Z,0.97
2017-02-08T06:21:50.768Z,1.02
2017-02-08T06:23:00.188Z,1.02
2017-02-08T06:24:09.615Z,1
2017-02-08T06:25:19.425Z,0.98
2017-02-08T06:26:29.240Z,0.98
2017-02-08T06:27:38.281Z,0.98
2017-02-08T06:28:48.090Z,0.96
2017-02-08T06:29:57.570Z,0.96
2017-02-08T06:31:07.765Z,1
2017-02-08T06:32:17.191Z,0.97
2017-02-08T06:33:26.998Z,1
2017-02-08T06:34:36.806Z,0.96
2017-02-08T06:35:46.277Z,0.97
2017-02-08T06:36:56.084Z,0.98
2017-02-08T06:38:05.895Z,1.02
2017-02-08T06:39:15.327Z,0.94
2017-02-08T06:40:23.987Z,0.98
2017-02-08T06:41:33.795Z,1.02
2017-02-08T06:42:43.994Z,1.04
2017-02-08T06:43:53.042Z,1.06
2017-02-08T06:45:03.241Z,1.08
2017-02-08T06:46:13.437Z,1.09
2017-02-08T06:47:22.529Z,1.06
2017-02-08T06:48:32.344Z,1.08
2017-02-08T06:49:41.388Z,1.12
2017-02-08T06:50:50.431Z,1.12
2017-02-08T06:51:59.091Z,1.11
2017-02-08T06:53:08.518Z,1.14
2017-02-08T06:54:17.956Z,1.18
2017-02-08T06:55:26.998Z,1.11
2017-02-08T06:56:36.419Z,1.16
2017-02-08T06:57:46.608Z,1.12
2017-02-08T06:58:55.651Z,1.12
2017-02-08T07:00:05.462Z,1.22
2017-02-08T07:01:14.905Z,1.18
2017-02-08T07:02:24.324Z,1.11
2017-02-08T07:03:33.753Z,1.22
2017-02-08T07:04:43.180Z,1.14
2017-02-08T07:05:53.010Z,1.16
2017-02-08T07:07:02.818Z,1.16
2017-02-08T07:08:11.867Z,1.23
2017-02-08T07:09:21.292Z,1.3
2017-02-08T07:10:31.105Z,1.22
2017-02-08T07:11:40.960Z,1.2
2017-02-08T07:12:50.765Z,1.18
2017-02-08T07:14:00.191Z,1.23
2017-02-08T07:15:09.997Z,1.18
2017-02-08T07:16:19.807Z,1.3
2017-02-08T07:17:29.230Z,1.3
2017-02-08T07:18:39.035Z,1.22
2017-02-08T07:19:48.842Z,1.27
2017-02-08T07:20:57.514Z,1.22
2017-02-08T07:22:07.325Z,1.24
2017-02-08T07:23:17.134Z,1.26
2017-02-08T07:24:26.942Z,1.34
2017-02-08T07:25:36.364Z,1.23
2017-02-08T07:26:45.787Z,1.24
2017-02-08T07:27:55.215Z,1.24
2017-02-08T07:29:05.021Z,1.27
2017-02-08T07:30:14.447Z,1.27
2017-02-08T07:31:24.250Z,1.2
2017-02-08T07:32:34.061Z,1.33
2017-02-08T07:33:43.107Z,1.32
2017-02-08T07:34:52.912Z,1.24
2017-02-08T07:36:02.724Z,1.27
2017-02-08T07:37:12.152Z,1.37
2017-02-08T07:38:22.347Z,1.36
2017-02-08T07:39:32.533Z,1.37
2017-02-08T07:40:41.575Z,1.4
2017-02-08T07:41:50.998Z,1.37
2017-02-08T07:43:00.427Z,1.29
2017-02-08T07:44:09.849Z,1.36
2017-02-08T07:45:19.660Z,1.24
2017-02-08T07:46:29.083Z,1.32
2017-02-08T07:47:38.133Z,1.33
2017-02-08T07:48:46.791Z,1.42
2017-02-08T07:49:56.214Z,1.42
2017-02-08T07:51:05.640Z,1.36
2017-02-08T07:52:15.068Z,1.36
2017-02-08T07:53:24.493Z,1.4
2017-02-08T07:54:34.294Z,1.4
2017-02-08T07:55:43.332Z,1.37
2017-02-08T07:56:53.229Z,1.41
2017-02-08T07:58:02.653Z,1.36
2017-02-08T07:59:12.844Z,1.44
2017-02-08T08:00:21.882Z,1.5
2017-02-08T08:01:30.928Z,1.45
2017-02-08T08:02:40.400Z,1.45
2017-02-08T08:03:49.058Z,1.48
2017-02-08T08:04:58.868Z,1.44
2017-02-08T08:06:07.911Z,1.52
2017-02-08T08:07:16.570Z,1.52
2017-02-08T08:08:25.994Z,1.58
2017-02-08T08:09:35.423Z,1.62
2017-02-08T08:10:44.847Z,1.54
2017-02-08T08:11:54.272Z,1.59
2017-02-08T08:13:03.701Z,1.62
2017-02-08T08:14:12.800Z,1.59
2017-02-08T08:15:22.990Z,1.6
2017-02-08T08:16:32.036Z,1.6
2017-02-08T08:17:41.844Z,1.6
2017-02-08T08:18:51.276Z,1.6
2017-02-08T08:20:00.361Z,1.6
2017-02-08T08:21:10.173Z,1.79
2017-02-08T08:22:20.366Z,1.69
2017-02-08T08:23:29.800Z,1.63
2017-02-08T08:24:39.611Z,1.72
2017-02-08T08:25:49.473Z,1.7
2017-02-08T08:26:59.667Z,1.68
2017-02-08T08:28:08.710Z,1.8
2017-02-08T08:29:18.517Z,1.84
2017-02-08T08:30:27.559Z,1.86
2017-02-08T08:31:37.757Z,1.77
2017-02-08T08:32:47.183Z,1.95
2017-02-08T08:33:56.991Z,1.79
2017-02-08T08:35:06.794Z,1.88
2017-02-08T08:36:16.216Z,1.86
2017-02-08T08:37:25.311Z,1.86
2017-02-08T08:38:34.351Z,1.81
2017-02-08T08:39:43.782Z,1.84
2017-02-08T08:40:53.202Z,1.88
2017-02-08T08:42:03.008Z,1.79
2017-02-08T08:43:12.818Z,1.83
2017-02-08T08:44:22.282Z,1.86
2017-02-08T08:45:31.710Z,1.84
2017-02-08T08:46:41.516Z,1.8
2017-02-08T08:47:50.938Z,1.83
2017-02-08T08:49:00.827Z,1.88
2017-02-08T08:50:10.635Z,1.9
2017-02-08T08:51:20.062Z,1.95
2017-02-08T08:52:30.250Z,1.86
2017-02-08T08:53:40.056Z,1.86
2017-02-08T08:54:50.246Z,1.9
2017-02-08T08:55:59.671Z,1.99
2017-02-08T08:57:09.100Z,2.05
2017-02-08T08:58:18.906Z,2.05
2017-02-08T08:59:28.717Z,2.03
2017-02-08T09:00:38.188Z,2.06
2017-02-08T09:01:47.233Z,2.07
2017-02-08T09:02:57.045Z,2.14
2017-02-08T09:04:07.238Z,2.09
2017-02-08T09:05:16.668Z,2.02
2017-02-08T09:06:25.375Z,2.05
2017-02-08T09:07:34.800Z,2.07
2017-02-08T09:08:44.610Z,2.05
2017-02-08T09:09:53.656Z,2.06
2017-02-08T09:11:03.462Z,2.21
2017-02-08T09:12:13.648Z,2.14
2017-02-08T09:13:23.073Z,2.17
2017-02-08T09:14:32.887Z,2.1
2017-02-08T09:15:43.077Z,2.12
2017-02-08T09:16:52.117Z,2.18
2017-02-08T09:18:01.975Z,2.18
2017-02-08T09:19:11.460Z,2.18
2017-02-08T09:20:20.894Z,2.27
2017-02-08T09:21:30.707Z,2.16
2017-02-08T09:22:40.515Z,2.27
2017-02-08T09:23:50.751Z,2.34
2017-02-08T09:25:00.559Z,2.28
2017-02-08T09:26:09.984Z,2.24
2017-02-08T09:27:19.408Z,2.23
2017-02-08T09:28:28.831Z,2.23
2017-02-08T09:29:37.927Z,2.31
2017-02-08T09:30:47.345Z,2.31
2017-02-08T09:31:57.150Z,2.21
2017-02-08T09:33:07.339Z,2.25
2017-02-08T09:34:16.385Z,2.34
2017-02-08T09:35:26.195Z,2.3
2017-02-08T09:36:36.390Z,2.3
2017-02-08T09:37:45.813Z,2.36
2017-02-08T09:38:55.235Z,2.36
2017-02-08T09:40:05.434Z,2.36
2017-02-08T09:41:14.868Z,2.25
2017-02-08T09:42:23.914Z,2.34
2017-02-08T09:43:33.723Z,2.28
2017-02-08T09:44:43.531Z,2.25
2017-02-08T09:45:52.568Z,2.28
2017-02-08T09:47:02.430Z,2.34
2017-02-08T09:48:11.853Z,2.43
2017-02-08T09:49:21.659Z,2.49
2017-02-08T09:50:31.087Z,2.52
2017-02-08T09:51:41.274Z,2.43
2017-02-08T09:52:51.129Z,2.59
2017-02-08T09:54:00.939Z,2.61
2017-02-08T09:55:10.365Z,2.69
2017-02-08T09:56:19.788Z,2.75
2017-02-08T09:57:28.832Z,2.75
2017-02-08T09:58:38.261Z,2.77
2017-02-08T09:59:48.081Z,2.79
2017-02-08T10:00:57.508Z,2.78
2017-02-08T10:02:07.697Z,2.82
2017-02-08T10:03:17.119Z,2.84
2017-02-08T10:04:25.779Z,2.77
2017-02-08T10:05:35.207Z,2.85
2017-02-08T10:06:44.250Z,2.9
2017-02-08T10:07:53.678Z,2.82
2017-02-08T10:09:02.724Z,2.84
2017-02-08T10:10:12.530Z,2.89
2017-02-08T10:11:22.337Z,2.95
2017-02-08T10:12:31.382Z,2.95
2017-02-08T10:13:40.805Z,2.99
2017-02-08T10:14:51.380Z,2.97
2017-02-08T10:16:01.200Z,2.95
2017-02-08T10:17:10.242Z,2.9
2017-02-08T10:18:19.283Z,2.84
2017-02-08T10:19:28.715Z,2.85
2017-02-08T10:20:38.150Z,2.87
2017-02-08T10:21:47.625Z,2.84
2017-02-08T10:22:57.436Z,2.97
2017-02-08T10:24:07.241Z,2.9
2017-02-08T10:25:16.671Z,2.89
2017-02-08T10:26:26.479Z,2.84
2017-02-08T10:27:35.904Z,2.87
2017-02-08T10:28:44.942Z,2.87
2017-02-08T10:29:54.754Z,2.84
2017-02-08T10:31:04.567Z,2.93
2017-02-08T10:32:13.994Z,2.97
2017-02-08T10:33:23.805Z,3
2017-02-08T10:34:33.622Z,3.17
2017-02-08T10:35:43.048Z,3.1
2017-02-08T10:36:52.472Z,3.05
2017-02-08T10:38:01.899Z,3.05
2017-02-08T10:39:11.710Z,3.11
2017-02-08T10:40:21.899Z,3.14
2017-02-08T10:41:32.473Z,3.11
2017-02-08T10:42:41.891Z,3.29
2017-02-08T10:43:52.082Z,3.26
2017-02-08T10:45:01.566Z,3.31
2017-02-08T10:46:11.377Z,3.32
2017-02-08T10:47:21.187Z,3.31
2017-02-08T10:48:30.229Z,3.32
2017-02-08T10:49:39.655Z,3.35
2017-02-08T10:50:49.466Z,3.29
2017-02-08T10:51:58.888Z,3.35
2017-02-08T10:53:08.315Z,3.32
2017-02-08T10:54:16.972Z,3.42
2017-02-08T10:55:26.779Z,3.48
2017-02-08T10:56:36.675Z,3.55
2017-02-08T10:57:46.489Z,3.57
2017-02-08T10:58:56.302Z,3.6
2017-02-08T11:00:05.346Z,3.58
2017-02-08T11:01:14.769Z,3.68
2017-02-08T11:02:24.196Z,3.66
2017-02-08T11:03:33.628Z,3.69
2017-02-08T11:04:42.667Z,3.69
2017-02-08T11:05:52.091Z,3.69
2017-02-08T11:07:01.531Z,3.66
2017-02-08T11:08:11.727Z,3.7
2017-02-08T11:09:21.538Z,3.76
2017-02-08T11:10:31.736Z,3.78
2017-02-08T11:11:41.931Z,3.84
2017-02-08T11:12:52.154Z,3.91
2017-02-08T11:14:01.964Z,3.91
2017-02-08T11:15:11.393Z,3.9
2017-02-08T11:16:20.437Z,3.86
2017-02-08T11:17:29.482Z,3.91
2017-02-08T11:18:39.682Z,3.96
2017-02-08T11:19:49.166Z,3.97
2017-02-08T11:20:58.210Z,3.9
2017-02-08T11:22:08.403Z,3.76
2017-02-08T11:23:18.215Z,3.8
2017-02-08T11:24:27.260Z,3.94
2017-02-08T11:25:37.122Z,3.91
2017-02-08T11:26:46.936Z,3.9
2017-02-08T11:27:57.129Z,4.02
2017-02-08T11:29:06.559Z,3.94
2017-02-08T11:30:15.606Z,3.87
2017-02-08T11:31:24.755Z,3.93
2017-02-08T11:32:34.182Z,3.91
2017-02-08T11:33:43.609Z,3.84
2017-02-08T11:34:52.300Z,3.88
2017-02-08T11:36:01.344Z,3.75
2017-02-08T11:37:10.489Z,3.8
2017-02-08T11:38:20.334Z,3.9
2017-02-08T11:39:30.140Z,3.83
2017-02-08T11:40:39.944Z,3.83
2017-02-08T11:41:49.375Z,3.75
2017-02-08T11:42:58.517Z,3.75
2017-02-08T11:44:07.943Z,3.79
2017-02-08T11:45:17.373Z,3.93
2017-02-08T11:46:26.418Z,3.97
2017-02-08T11:47:35.837Z,3.91
2017-02-08T11:48:44.880Z,4.04
2017-02-08T11:49:53.928Z,4.11
2017-02-08T11:51:03.740Z,4.08
2017-02-08T11:52:12.780Z,4.06
2017-02-08T11:53:22.599Z,4.05
2017-02-08T11:54:32.508Z,3.86
2017-02-08T11:55:41.933Z,3.94
2017-02-08T11:56:51.742Z,3.93
2017-02-08T11:58:01.560Z,3.87
2017-02-08T11:59:10.985Z,3.91
2017-02-08T12:00:20.796Z,3.94
2017-02-08T12:01:30.997Z,3.98
2017-02-08T12:02:40.806Z,4
2017-02-08T12:03:50.235Z,3.98
2017-02-08T12:04:59.663Z,4.09
2017-02-08T12:06:09.188Z,4.23
2017-02-08T12:07:18.616Z,4.15
2017-02-08T12:08:28.044Z,4.23
2017-02-08T12:09:37.884Z,4.2
2017-02-08T12:10:47.700Z,4.22
2017-02-08T12:11:57.124Z,4.08
2017-02-08T12:13:06.939Z,4.06
2017-02-08T12:14:16.746Z,4.12
2017-02-08T12:15:25.402Z,4.11
2017-02-08T12:16:34.063Z,4.11
2017-02-08T12:17:43.207Z,4.18
2017-02-08T12:18:52.632Z,4.08
2017-02-08T12:20:02.451Z,4.15
2017-02-08T12:21:12.262Z,4
2017-02-08T12:22:21.696Z,4.02
2017-02-08T12:23:31.121Z,3.91
2017-02-08T12:24:41.314Z,3.9
2017-02-08T12:25:50.757Z,3.94
2017-02-08T12:27:00.950Z,3.9
2017-02-08T12:28:10.385Z,3.97
2017-02-08T12:29:19.531Z,4
2017-02-08T12:30:28.960Z,4.04
2017-02-08T12:31:37.624Z,4.04
2017-02-08T12:32:47.435Z,4.11
2017-02-08T12:33:57.246Z,4.18
2017-02-08T12:35:06.387Z,4.22
2017-02-08T12:36:15.437Z,4.27
2017-02-08T12:37:24.860Z,4.4
2017-02-08T12:38:34.668Z,4.42
2017-02-08T12:39:44.104Z,4.34
2017-02-08T12:40:53.150Z,4.37
2017-02-08T12:42:02.963Z,4.33
2017-02-08T12:43:12.410Z,4.4
2017-02-08T12:44:21.456Z,4.41
2017-02-08T12:45:30.884Z,4.45
2017-02-08T12:46:40.312Z,4.55
2017-02-08T12:47:49.739Z,4.7
2017-02-08T12:48:58.400Z,4.65
2017-02-08T12:50:07.832Z,4.72
2017-02-08T12:51:17.649Z,4.65
2017-02-08T12:52:27.178Z,4.62
2017-02-08T12:53:36.989Z,4.66
2017-02-08T12:54:46.416Z,4.72
2017-02-08T12:55:55.847Z,4.72
2017-02-08T12:57:05.278Z,4.84
2017-02-08T12:58:14.433Z,4.85
2017-02-08T12:59:23.478Z,4.7
2017-02-08T13:00:32.907Z,4.72
2017-02-08T13:01:42.723Z,4.66
2017-02-08T13:02:52.915Z,4.7
2017-02-08T13:04:02.058Z,4.66
2017-02-08T13:05:11.510Z,4.63
2017-02-08T13:06:20.935Z,4.73
2017-02-08T13:07:30.367Z,4.66
2017-02-08T13:08:39.811Z,4.59
2017-02-08T13:09:49.722Z,4.67
2017-02-08T13:10:59.532Z,4.8
2017-02-08T13:12:08.576Z,4.75
2017-02-08T13:13:18.000Z,4.89
2017-02-08T13:14:28.195Z,5.03
2017-02-08T13:15:36.859Z,4.99
2017-02-08T13:16:45.901Z,5.09
2017-02-08T13:17:54.571Z,5.2
2017-02-08T13:19:04.004Z,5.33
2017-02-08T13:20:13.432Z,5.21
2017-02-08T13:21:22.581Z,5.18
2017-02-08T13:22:32.775Z,5.13
2017-02-08T13:23:42.589Z,5.12
2017-02-08T13:24:52.013Z,5.21
2017-02-08T13:26:01.067Z,5.2
2017-02-08T13:27:10.599Z,5.18
2017-02-08T13:28:19.643Z,5.21
2017-02-08T13:29:29.071Z,5.27
2017-02-08T13:30:38.505Z,5.43
2017-02-08T13:31:47.556Z,5.46
2017-02-08T13:32:57.367Z,5.43
2017-02-08T13:34:07.177Z,5.48
2017-02-08T13:35:16.220Z,5.53
2017-02-08T13:36:26.029Z,5.57
2017-02-08T13:37:34.689Z,5.63
2017-02-08T13:38:44.993Z,5.65
2017-02-08T13:39:54.420Z,5.56
2017-02-08T13:41:03.846Z,5.53
2017-02-08T13:42:13.661Z,5.38
2017-02-08T13:43:23.472Z,5.36
2017-02-08T13:44:32.904Z,5.18
2017-02-08T13:45:41.948Z,5.1
2017-02-08T13:46:51.757Z,5.21
2017-02-08T13:48:01.215Z,5.18
2017-02-08T13:49:11.415Z,5.2
2017-02-08T13:50:21.240Z,5.2
2017-02-08T13:51:30.287Z,5.12
2017-02-08T13:52:40.098Z,5
2017-02-08T13:53:49.909Z,4.99
2017-02-08T13:54:58.996Z,4.89
2017-02-08T13:56:07.761Z,4.88
2017-02-08T13:57:17.957Z,4.94
2017-02-08T13:58:27.774Z,5
2017-02-08T13:59:37.972Z,5.12
2017-02-08T14:00:47.060Z,5.17
2017-02-08T14:01:56.590Z,5.18
2017-02-08T14:03:05.637Z,5.28
2017-02-08T14:04:14.688Z,5.2
2017-02-08T14:05:24.882Z,5.13
2017-02-08T14:06:35.084Z,5.02
2017-02-08T14:07:45.051Z,4.92
2017-02-08T14:08:54.098Z,4.82
2017-02-08T14:10:03.146Z,4.73
2017-02-08T14:11:12.187Z,4.75
2017-02-08T14:12:22.381Z,4.86
2017-02-08T14:13:31.811Z,4.8
2017-02-08T14:14:40.858Z,4.85
2017-02-08T14:15:50.294Z,4.73
2017-02-08T14:17:00.110Z,4.67
2017-02-08T14:18:10.307Z,4.73
2017-02-08T14:19:19.734Z,4.67
2017-02-08T14:20:29.162Z,4.54
2017-02-08T14:21:38.604Z,4.65
2017-02-08T14:22:48.801Z,4.52
2017-02-08T14:23:58.612Z,4.48
2017-02-08T14:25:08.039Z,4.42
2017-02-08T14:26:17.856Z,4.37
2017-02-08T14:27:27.672Z,4.36
2017-02-08T14:28:36.715Z,4.24
2017-02-08T14:29:46.147Z,4.27
2017-02-08T14:30:55.955Z,4.23
2017-02-08T14:34:05.384Z,4.34
2017-02-08T14:43:31.011Z,4.02
2017-02-08T14:44:40.444Z,4.04
2017-02-08T14:45:49.903Z,4.05
2017-02-08T14:46:59.711Z,3.94
2017-02-08T14:48:09.910Z,3.91
2017-02-08T14:49:19.341Z,3.96
2017-02-08T14:50:28.769Z,3.86
2017-02-08T14:51:38.963Z,3.91
2017-02-08T14:52:49.253Z,3.83
2017-02-08T14:53:58.293Z,3.8
2017-02-08T14:55:07.725Z,3.8
2017-02-08T14:56:17.580Z,3.6
2017-02-08T14:57:27.773Z,3.72
2017-02-08T14:58:37.689Z,3.69
2017-02-08T14:59:47.116Z,3.7
2017-02-08T15:00:56.929Z,3.66
2017-02-08T15:02:05.982Z,3.7
2017-02-08T15:03:15.798Z,3.62
2017-02-08T15:04:25.607Z,3.62
2017-02-08T15:05:35.033Z,3.6
2017-02-08T15:06:44.457Z,3.61
2017-02-08T15:07:54.653Z,3.7
2017-02-08T15:09:04.086Z,3.75
2017-02-08T15:10:13.609Z,3.68
2017-02-08T15:11:22.654Z,3.66
2017-02-08T15:12:32.079Z,3.55
2017-02-08T15:13:41.120Z,3.6
2017-02-08T15:14:50.541Z,3.58
2017-02-08T15:16:00.788Z,3.61
2017-02-08T15:17:10.599Z,3.54
2017-02-08T15:18:20.024Z,3.4
2017-02-08T15:19:29.453Z,3.52
2017-02-08T15:20:38.885Z,3.5
2017-02-08T15:21:49.176Z,3.39
2017-02-08T15:22:58.255Z,3.42
2017-02-08T15:24:08.830Z,3.45
2017-02-08T15:25:18.261Z,3.42
2017-02-08T15:26:28.459Z,3.4
2017-02-08T15:27:38.374Z,3.43
2017-02-08T15:28:47.807Z,3.36
2017-02-08T15:29:57.625Z,3.45
2017-02-08T15:31:07.055Z,3.42
2017-02-08T15:32:17.251Z,3.4
2017-02-08T15:33:27.543Z,3.39
2017-02-08T15:34:36.586Z,3.4
2017-02-08T15:35:46.014Z,3.32
2017-02-08T15:36:55.448Z,3.23
2017-02-08T15:38:04.500Z,3.24
2017-02-08T15:39:14.797Z,3.2
2017-02-08T15:40:23.839Z,3.17